Time;durP1;ratioP1;P1;durP2;ratioP2;P2;SDS_P1;SDS_P2;PMS_P1;PMS_P2;Temp;Humidity;BMP_temperature;BMP_pressure;BME280_temperature;BME280_humidity;BME280_pressure;Samples;Min_cycle;Max_cycle;Signal;HPM_P1;HPM_P2
2022/10/04 00:00:26;;;;;;;14.33;6.90;;;9.40;99.90;;;;;;5035606;28;20445;-76
2022/10/04 00:03:23;;;;;;;21.50;8.17;;;9.30;99.90;;;;;;5043278;28;20467;-76
2022/10/04 00:06:15;;;;;;;31.57;7.63;;;9.20;99.90;;;;;;5038513;28;20448;-77
2022/10/04 00:09:08;;;;;;;8.27;6.87;;;9.00;99.90;;;;;;5041224;28;20429;-74
2022/10/04 00:11:55;;;;;;;12.37;7.90;;;8.90;99.90;;;;;;5043669;28;20526;-75
2022/10/04 00:14:43;;;;;;;16.87;7.13;;;9.00;99.90;;;;;;5031149;28;20608;-77
2022/10/04 00:17:34;;;;;;;63.40;7.30;;;9.00;99.90;;;;;;5025023;28;20581;-76
2022/10/04 00:20:59;;;;;;;13.80;6.70;;;8.90;99.90;;;;;;5037369;28;20856;-75
2022/10/04 00:23:47;;;;;;;13.73;7.63;;;8.80;99.90;;;;;;5038574;28;20407;-76
2022/10/04 00:27:10;;;;;;;10.20;6.27;;;8.90;99.90;;;;;;5030481;28;20952;-76
2022/10/04 00:30:21;;;;;;;8.30;6.60;;;9.10;99.90;;;;;;5038061;28;20432;-76
2022/10/04 00:33:07;;;;;;;14.53;6.37;;;9.30;99.90;;;;;;5044875;28;20403;-76
2022/10/04 00:35:53;;;;;;;12.93;6.53;;;9.40;99.90;;;;;;5026942;28;20597;-77
2022/10/04 00:38:40;;;;;;;25.03;8.10;;;9.30;99.90;;;;;;5042188;28;20435;-76
2022/10/04 00:41:27;;;;;;;24.30;7.40;;;9.20;99.90;;;;;;5023904;28;20532;-76
2022/10/04 00:44:22;;;;;;;81.87;8.30;;;9.30;99.90;;;;;;5034251;28;20805;-77
2022/10/04 00:47:21;;;;;;;37.47;8.23;;;9.20;99.90;;;;;;5031465;28;20958;-76
2022/10/04 00:50:16;;;;;;;68.10;7.33;;;9.10;99.90;;;;;;5040298;28;20542;-74
2022/10/04 00:53:03;;;;;;;12.50;6.93;;;9.00;99.90;;;;;;5051134;28;20431;-76
2022/10/04 00:55:53;;;;;;;17.80;7.50;;;9.10;99.90;;;;;;5037336;28;20445;-76
2022/10/04 00:59:02;;;;;;;8.23;7.00;;;9.10;99.90;;;;;;5039266;28;20619;-76
2022/10/04 01:01:52;;;;;;;12.60;5.50;;;9.10;99.90;;;;;;5047493;28;20498;-77
2022/10/04 01:04:43;;;;;;;10.50;7.20;;;9.00;99.90;;;;;;5037307;28;20431;-75
2022/10/04 01:07:33;;;;;;;26.63;7.33;;;9.10;99.90;;;;;;5038677;28;20935;-75
2022/10/04 01:10:22;;;;;;;20.60;6.60;;;8.90;99.90;;;;;;5035061;28;20494;-76
2022/10/04 01:13:13;;;;;;;16.43;6.60;;;8.80;99.90;;;;;;5040682;28;20434;-76
2022/10/04 01:16:03;;;;;;;30.07;7.07;;;8.80;99.90;;;;;;5026936;28;20445;-76
2022/10/04 01:18:49;;;;;;;13.70;6.50;;;8.70;99.90;;;;;;5036746;28;20433;-76
2022/10/04 01:21:37;;;;;;;13.13;6.90;;;8.60;99.90;;;;;;5037255;28;20476;-76
2022/10/04 01:24:25;;;;;;;14.67;6.17;;;8.80;99.90;;;;;;5032455;28;20820;-76
2022/10/04 01:27:33;;;;;;;7.60;5.80;;;8.90;99.90;;;;;;5034946;28;20942;-76
2022/10/04 01:30:19;;;;;;;9.30;7.90;;;8.90;99.90;;;;;;5026658;28;20475;-76
2022/10/04 01:33:06;;;;;;;9.77;6.93;;;9.00;99.90;;;;;;5038446;28;20452;-76
2022/10/04 01:35:52;;;;;;;24.30;5.97;;;9.10;99.90;;;;;;5029637;28;20938;-76
2022/10/04 01:38:38;;;;;;;8.07;6.30;;;9.00;99.90;;;;;;5047581;28;20475;-76
2022/10/04 01:41:30;;;;;;;6.80;5.60;;;8.90;99.90;;;;;;5041604;28;21032;-76
2022/10/04 01:44:24;;;;;;;13.23;6.30;;;9.10;99.90;;;;;;5035987;28;20443;-76
2022/10/04 01:47:13;;;;;;;7.83;6.00;;;9.20;99.90;;;;;;5045528;28;20950;-76
2022/10/04 01:50:04;;;;;;;14.60;5.67;;;9.30;99.90;;;;;;5038372;28;20948;-76
2022/10/04 01:52:54;;;;;;;9.18;6.70;;;9.20;99.90;;;;;;5046331;28;20920;-76
2022/10/04 01:55:41;;;;;;;8.83;4.70;;;9.10;99.90;;;;;;5032393;28;20667;-76
2022/10/04 01:58:32;;;;;;;9.77;5.55;;;9.20;99.90;;;;;;5043242;28;20601;-76
2022/10/04 02:01:29;;;;;;;19.50;6.00;;;9.10;99.90;;;;;;5050276;28;20220;-76
2022/10/04 02:04:18;;;;;;;15.20;6.33;;;9.00;99.90;;;;;;5040581;28;20554;-76
2022/10/04 02:07:12;;;;;;;13.00;5.87;;;8.90;99.90;;;;;;5043225;28;20518;-77
2022/10/04 02:10:00;;;;;;;6.00;5.40;;;9.00;99.90;;;;;;5048376;28;20427;-76
2022/10/04 02:12:51;;;;;;;18.10;6.10;;;9.10;99.90;;;;;;5043954;28;20432;-76
2022/10/04 02:15:39;;;;;;;6.37;4.30;;;9.00;99.90;;;;;;5030331;28;20459;-76
2022/10/04 02:18:26;;;;;;;5.90;4.50;;;9.00;99.90;;;;;;5021041;28;20825;-76
2022/10/04 02:21:14;;;;;;;11.00;5.50;;;9.00;99.90;;;;;;5028779;28;20479;-76
2022/10/04 02:24:00;;;;;;;16.77;5.97;;;9.10;99.90;;;;;;5026943;28;22871;-75
2022/10/04 02:26:50;;;;;;;6.07;4.77;;;9.10;99.90;;;;;;5035477;28;20565;-76
2022/10/04 02:29:36;;;;;;;11.37;5.03;;;9.00;99.90;;;;;;5041608;28;20594;-77
2022/10/04 02:35:29;;;;;;;7.30;5.87;;;8.80;99.90;;;;;;5019893;28;20475;-74
2022/10/04 02:38:21;;;;;;;63.80;6.23;;;8.90;99.90;;;;;;5042322;28;20463;-76
2022/10/04 02:41:16;;;;;;;10.43;4.80;;;8.90;99.90;;;;;;5033110;28;20456;-76
2022/10/04 02:44:08;;;;;;;7.00;5.20;;;8.80;99.90;;;;;;5033633;28;20449;-76
2022/10/04 02:47:03;;;;;;;6.97;5.10;;;8.80;99.90;;;;;;5028936;28;20965;-74
2022/10/04 02:49:53;;;;;;;33.67;4.50;;;8.90;99.90;;;;;;5029573;28;20640;-74
2022/10/04 02:52:44;;;;;;;35.13;5.00;;;9.00;99.90;;;;;;5032305;28;20488;-76
2022/10/04 02:55:31;;;;;;;22.33;4.03;;;9.00;99.90;;;;;;5031017;28;20463;-76
2022/10/04 02:58:22;;;;;;;5.73;4.57;;;9.00;99.90;;;;;;5037195;28;20984;-76
2022/10/04 03:01:23;;;;;;;4.50;4.10;;;9.00;99.90;;;;;;5027111;28;20486;-76
2022/10/04 03:04:12;;;;;;;21.27;4.30;;;9.00;99.90;;;;;;5025080;28;20424;-74
2022/10/04 03:07:02;;;;;;;8.77;3.50;;;8.90;99.90;;;;;;5035963;28;20559;-76
2022/10/04 03:09:48;;;;;;;4.67;4.17;;;8.70;99.90;;;;;;5038442;28;20440;-76
2022/10/04 03:12:34;;;;;;;9.48;4.40;;;8.50;99.90;;;;;;5032492;28;20507;-76
2022/10/04 03:15:21;;;;;;;6.50;4.13;;;8.60;99.90;;;;;;5025580;28;20209;-77
2022/10/04 03:18:07;;;;;;;5.00;3.77;;;8.70;99.90;;;;;;5030045;28;20552;-76
2022/10/04 03:20:52;;;;;;;4.90;3.73;;;8.70;99.90;;;;;;5034307;28;20630;-76
2022/10/04 03:23:40;;;;;;;13.30;4.00;;;8.70;99.90;;;;;;5024341;28;20447;-76
2022/10/04 03:26:29;;;;;;;4.97;3.50;;;8.80;99.90;;;;;;5030183;28;20451;-76
2022/10/04 03:29:18;;;;;;;5.90;3.43;;;8.80;99.90;;;;;;5029311;28;20439;-76
2022/10/04 03:32:05;;;;;;;4.70;4.17;;;8.80;99.90;;;;;;5024813;28;20517;-76
2022/10/04 03:34:55;;;;;;;4.70;3.80;;;8.80;99.90;;;;;;5025930;28;20519;-76
2022/10/04 03:37:41;;;;;;;4.43;3.75;;;8.80;99.90;;;;;;5035440;28;20442;-76
2022/10/04 03:40:32;;;;;;;7.67;4.77;;;8.80;99.90;;;;;;5035024;28;20220;-76
2022/10/04 03:43:19;;;;;;;8.33;3.90;;;8.80;99.90;;;;;;5034129;28;20449;-76
2022/10/04 03:46:08;;;;;;;12.15;3.95;;;8.70;99.90;;;;;;5030106;28;20444;-76
2022/10/04 03:48:55;;;;;;;36.03;4.00;;;8.70;99.90;;;;;;5029930;28;20206;-76
2022/10/04 03:51:45;;;;;;;12.03;3.63;;;8.70;99.90;;;;;;5024962;28;20447;-76
2022/10/04 03:54:33;;;;;;;3.60;3.30;;;8.50;99.90;;;;;;5022686;28;20453;-76
2022/10/04 03:57:20;;;;;;;30.17;3.93;;;8.60;99.90;;;;;;5040316;28;20475;-76
2022/10/04 04:00:07;;;;;;;4.00;3.30;;;8.50;99.90;;;;;;5035430;28;20573;-77
2022/10/04 04:02:57;;;;;;;6.33;3.10;;;8.50;99.90;;;;;;5035179;28;20790;-75
2022/10/04 04:05:46;;;;;;;4.30;3.67;;;8.50;99.90;;;;;;5028085;28;20404;-75
2022/10/04 04:08:35;;;;;;;4.47;3.03;;;8.40;99.90;;;;;;5036113;28;20419;-76
2022/10/04 04:11:23;;;;;;;4.10;3.60;;;8.50;99.90;;;;;;5035271;28;20534;-74
2022/10/04 04:14:17;;;;;;;17.97;3.67;;;8.60;99.90;;;;;;5023176;28;20427;-76
2022/10/04 04:17:28;;;;;;;28.77;3.63;;;8.60;99.90;;;;;;5035191;28;20436;-76
2022/10/04 04:20:24;;;;;;;8.73;3.17;;;8.40;99.90;;;;;;5024215;28;20487;-76
2022/10/04 04:23:22;;;;;;;24.70;3.80;;;8.30;99.90;;;;;;5030291;28;20820;-77
2022/10/04 04:26:23;;;;;;;7.75;3.85;;;8.20;99.90;;;;;;5024620;28;20229;-76
2022/10/04 04:29:17;;;;;;;7.77;4.60;;;8.10;99.90;;;;;;5034734;28;20305;-76
2022/10/04 04:32:08;;;;;;;7.63;4.20;;;8.10;99.90;;;;;;5039249;28;20459;-76
2022/10/04 04:34:59;;;;;;;4.70;3.77;;;8.10;99.90;;;;;;5029246;28;20539;-76
2022/10/04 04:37:44;;;;;;;5.47;4.32;;;8.10;99.90;;;;;;5023499;28;20469;-76
2022/10/04 04:40:31;;;;;;;6.50;4.22;;;8.30;99.90;;;;;;5031883;28;20221;-75
2022/10/04 04:43:20;;;;;;;6.47;4.37;;;8.40;99.90;;;;;;5028360;28;20205;-76
2022/10/04 04:46:11;;;;;;;5.70;3.80;;;8.40;99.90;;;;;;5023973;28;20815;-76
2022/10/04 04:49:01;;;;;;;4.80;4.07;;;8.30;99.90;;;;;;5037063;28;20426;-74
2022/10/04 04:51:50;;;;;;;3.93;3.40;;;8.30;99.90;;;;;;5041348;28;20452;-76
2022/10/04 04:54:36;;;;;;;4.70;3.13;;;8.30;99.90;;;;;;5027743;28;20476;-76
2022/10/04 04:57:22;;;;;;;4.13;2.88;;;8.30;99.90;;;;;;5033283;28;20773;-76
2022/10/04 05:00:16;;;;;;;6.27;3.17;;;8.20;99.90;;;;;;5035425;28;20222;-76
2022/10/04 05:03:05;;;;;;;3.27;2.77;;;8.20;99.90;;;;;;5026958;28;20452;-76
2022/10/04 05:05:53;;;;;;;3.00;2.50;;;8.20;99.90;;;;;;5033299;28;20465;-74
2022/10/04 05:08:39;;;;;;;3.03;2.70;;;8.20;99.90;;;;;;5036651;28;20914;-76
2022/10/04 05:11:28;;;;;;;5.53;2.70;;;8.10;99.90;;;;;;5025409;28;20710;-76
2022/10/04 05:14:18;;;;;;;3.40;2.70;;;8.00;99.90;;;;;;5020860;28;20318;-76
2022/10/04 05:17:04;;;;;;;5.13;2.75;;;8.10;99.90;;;;;;5035138;28;20588;-76
2022/10/04 05:19:53;;;;;;;9.77;2.30;;;8.30;99.90;;;;;;5024977;28;20268;-76
2022/10/04 05:22:41;;;;;;;2.95;2.60;;;8.40;99.90;;;;;;5029150;28;20572;-76
2022/10/04 05:25:29;;;;;;;3.95;3.55;;;8.40;99.90;;;;;;5028642;28;20211;-75
2022/10/04 05:28:17;;;;;;;3.72;3.20;;;8.50;99.90;;;;;;5030954;28;20564;-76
2022/10/04 05:31:27;;;;;;;3.47;3.00;;;8.50;99.90;;;;;;5021035;28;20246;-75
2022/10/04 05:34:22;;;;;;;4.53;2.97;;;8.50;99.90;;;;;;5027882;28;20444;-75
2022/10/04 05:37:30;;;;;;;3.93;3.20;;;8.60;99.90;;;;;;5034453;28;20441;-74
2022/10/04 05:40:40;;;;;;;5.73;2.60;;;8.60;99.90;;;;;;5039700;28;20473;-76
2022/10/04 05:43:32;;;;;;;5.40;3.10;;;8.60;99.90;;;;;;5028887;28;20605;-76
2022/10/04 05:46:21;;;;;;;4.13;3.03;;;8.60;99.90;;;;;;5031272;28;20440;-76
2022/10/04 05:49:12;;;;;;;3.30;2.60;;;8.50;99.90;;;;;;5028328;28;20446;-76
2022/10/04 05:52:01;;;;;;;3.10;2.80;;;8.40;99.90;;;;;;5027757;28;20461;-76
2022/10/04 05:55:16;;;;;;;3.37;2.80;;;8.20;99.90;;;;;;5021851;28;20452;-76
2022/10/04 05:58:22;;;;;;;3.47;2.90;;;8.10;99.90;;;;;;5019663;28;20504;-76
2022/10/04 06:01:27;;;;;;;7.27;3.53;;;8.10;99.90;;;;;;5023927;28;20359;-76
2022/10/04 06:04:41;;;;;;;4.28;3.05;;;8.20;99.90;;;;;;5037157;28;21067;-76
2022/10/04 06:07:34;;;;;;;4.90;2.93;;;8.10;99.90;;;;;;5030437;28;20283;-75
2022/10/04 06:10:57;;;;;;;4.27;3.77;;;8.10;99.90;;;;;;5036341;28;20828;-76
2022/10/04 06:14:14;;;;;;;7.30;3.87;;;8.20;99.90;;;;;;5031174;28;20494;-76
2022/10/04 06:17:19;;;;;;;11.77;4.03;;;8.40;99.90;;;;;;5023462;28;20445;-76
2022/10/04 06:20:18;;;;;;;4.97;3.53;;;8.40;99.90;;;;;;5030980;28;20303;-76
2022/10/04 06:23:13;;;;;;;4.80;4.27;;;8.40;99.90;;;;;;5032509;28;20469;-77
2022/10/04 06:26:01;;;;;;;5.85;3.28;;;8.50;99.90;;;;;;5041979;28;20452;-76
2022/10/04 06:28:51;;;;;;;4.70;3.50;;;8.60;99.90;;;;;;5035313;28;20206;-76
2022/10/04 06:32:13;;;;;;;4.63;3.97;;;8.60;99.90;;;;;;5027766;28;20464;-76
2022/10/04 06:35:17;;;;;;;4.43;3.70;;;8.50;99.90;;;;;;5030294;28;20441;-76
2022/10/04 06:38:43;;;;;;;4.70;3.57;;;8.60;99.90;;;;;;5032003;28;20802;-76
2022/10/04 06:42:00;;;;;;;9.13;5.17;;;8.70;99.90;;;;;;5029469;28;20483;-77
2022/10/04 06:45:16;;;;;;;6.00;3.93;;;8.80;99.90;;;;;;5027166;28;20433;-76
2022/10/04 06:48:18;;;;;;;15.13;4.67;;;8.90;99.90;;;;;;5043755;28;20955;-75
2022/10/04 06:51:13;;;;;;;7.73;3.80;;;8.90;99.90;;;;;;5035202;28;21057;-76
2022/10/04 06:54:07;;;;;;;8.20;4.37;;;8.90;99.90;;;;;;5036495;28;20444;-77
2022/10/04 06:57:21;;;;;;;5.00;4.43;;;8.90;99.90;;;;;;5032496;28;20582;-76
2022/10/04 07:00:15;;;;;;;4.37;3.67;;;9.00;99.90;;;;;;5026736;28;20527;-77
2022/10/04 07:03:05;;;;;;;10.30;3.97;;;9.00;99.90;;;;;;5046757;28;20522;-77
2022/10/04 07:05:57;;;;;;;4.93;3.77;;;9.10;99.90;;;;;;5046221;28;20802;-77
2022/10/04 07:08:48;;;;;;;5.40;3.60;;;9.10;99.90;;;;;;5025491;28;20441;-77
2022/10/04 07:11:42;;;;;;;4.63;3.83;;;9.20;99.90;;;;;;5030354;28;20835;-77
2022/10/04 07:14:32;;;;;;;7.00;3.47;;;9.20;99.90;;;;;;5037752;28;21163;-76
2022/10/04 07:17:24;;;;;;;10.13;4.07;;;9.30;99.90;;;;;;5033961;28;20461;-77
2022/10/04 07:20:21;;;;;;;4.50;3.50;;;9.40;99.90;;;;;;5035911;28;20507;-76
2022/10/04 07:23:13;;;;;;;7.07;3.77;;;9.40;99.90;;;;;;5034196;28;20452;-76
2022/10/04 07:26:05;;;;;;;6.67;4.50;;;9.50;99.90;;;;;;5024896;28;20458;-76
2022/10/04 07:32:08;;;;;;;10.63;9.07;;;9.60;99.90;;;;;;5035589;28;20813;-77
2022/10/04 07:35:02;;;;;;;9.63;8.40;;;9.70;99.90;;;;;;5032031;28;20555;-77
2022/10/04 07:37:53;;;;;;;11.13;7.57;;;9.80;99.90;;;;;;5030691;28;20572;-77
2022/10/04 07:40:43;;;;;;;10.40;6.60;;;9.90;99.90;;;;;;5028334;28;20880;-76
2022/10/04 07:43:31;;;;;;;9.63;5.23;;;9.90;99.90;;;;;;5030860;28;20441;-77
2022/10/04 07:46:24;;;;;;;8.90;6.30;;;10.00;99.90;;;;;;5024025;28;21077;-77
2022/10/04 07:49:14;;;;;;;11.73;6.77;;;10.10;99.90;;;;;;5029809;28;21102;-76
2022/10/04 07:52:29;;;;;;;10.73;7.30;;;10.20;99.90;;;;;;5030134;28;20472;-76
2022/10/04 07:55:23;;;;;;;13.10;7.97;;;10.30;99.90;;;;;;5034157;28;20455;-76
2022/10/04 07:58:22;;;;;;;12.70;6.90;;;10.50;99.90;;;;;;5034070;28;21036;-77
2022/10/04 08:01:17;;;;;;;11.63;6.90;;;10.60;99.90;;;;;;5025643;28;20439;-77
2022/10/04 08:04:15;;;;;;;12.03;7.30;;;10.70;99.90;;;;;;5024209;28;20517;-77
2022/10/04 08:07:10;;;;;;;15.90;8.80;;;10.80;99.90;;;;;;5027714;28;20442;-77
2022/10/04 08:10:02;;;;;;;8.63;6.47;;;10.90;99.90;;;;;;5030629;28;20502;-77
2022/10/04 08:12:52;;;;;;;7.20;6.50;;;11.00;99.90;;;;;;5032110;28;20491;-77
2022/10/04 08:15:39;;;;;;;9.80;7.00;;;11.00;99.90;;;;;;5022907;28;20443;-77
2022/10/04 08:18:39;;;;;;;7.13;6.40;;;11.10;99.90;;;;;;5026651;28;20747;-77
2022/10/04 08:21:35;;;;;;;8.33;7.20;;;11.30;99.90;;;;;;5037363;28;20475;-76
2022/10/04 08:24:29;;;;;;;10.40;5.93;;;11.40;99.90;;;;;;5030193;28;20429;-75
2022/10/04 08:27:30;;;;;;;6.17;5.03;;;11.60;99.90;;;;;;5037645;28;20443;-76
2022/10/04 08:30:16;;;;;;;10.50;5.50;;;11.60;99.90;;;;;;5028859;28;20830;-75
2022/10/04 08:33:07;;;;;;;5.57;4.90;;;11.60;99.90;;;;;;5033268;28;20451;-75
2022/10/04 08:36:02;;;;;;;9.13;5.30;;;11.80;99.90;;;;;;5028420;28;20463;-75
2022/10/04 08:38:52;;;;;;;7.50;5.57;;;11.90;99.90;;;;;;5026707;28;20452;-75
2022/10/04 08:42:16;;;;;;;7.37;5.10;;;12.00;99.90;;;;;;5037146;28;20472;-76
2022/10/04 08:45:37;;;;;;;6.83;4.93;;;12.10;99.90;;;;;;5019576;28;20923;-75
2022/10/04 08:48:48;;;;;;;7.80;5.13;;;12.20;99.90;;;;;;5036440;28;20532;-75
2022/10/04 08:52:21;;;;;;;7.40;4.23;;;12.50;99.90;;;;;;5031308;28;21078;-77
2022/10/04 08:55:42;;;;;;;7.13;4.40;;;12.70;99.90;;;;;;5038478;28;20512;-77
2022/10/04 08:58:51;;;;;;;11.47;4.10;;;13.00;99.90;;;;;;5020682;28;20452;-77
2022/10/04 09:01:57;;;;;;;5.87;3.50;;;13.20;99.90;;;;;;5023454;28;20438;-77
2022/10/04 09:05:34;;;;;;;8.53;4.23;;;13.50;99.90;;;;;;5034082;28;20418;-77
2022/10/04 09:08:45;;;;;;;9.03;3.70;;;13.60;99.90;;;;;;4946096;28;20464;-76
2022/10/04 09:11:49;;;;;;;11.00;3.03;;;13.80;99.90;;;;;;5017926;28;20479;-76
2022/10/04 09:15:10;;;;;;;5.60;3.20;;;14.00;99.90;;;;;;5029461;28;20423;-76
2022/10/04 09:18:05;;;;;;;7.17;2.90;;;14.10;99.90;;;;;;5030112;28;20427;-77
2022/10/04 09:21:00;;;;;;;8.00;2.80;;;14.10;99.90;;;;;;5034208;28;20841;-76
2022/10/04 09:24:27;;;;;;;8.90;3.73;;;14.10;99.90;;;;;;5038368;28;20512;-76
2022/10/04 09:27:26;;;;;;;8.03;3.67;;;14.10;99.90;;;;;;5037232;28;20395;-77
2022/10/04 09:30:18;;;;;;;5.93;3.00;;;13.90;99.90;;;;;;5032354;28;20463;-76
2022/10/04 09:33:24;;;;;;;9.17;3.20;;;14.10;99.90;;;;;;5030039;28;20400;-76
2022/10/04 09:36:39;;;;;;;12.33;3.00;;;14.20;99.90;;;;;;5028379;28;20503;-76
2022/10/04 09:39:57;;;;;;;7.40;3.57;;;14.40;99.90;;;;;;5034070;28;20526;-77
2022/10/04 09:43:00;;;;;;;4.30;2.93;;;14.60;99.90;;;;;;5029893;28;20591;-77
2022/10/04 09:46:03;;;;;;;7.03;3.10;;;14.80;99.90;;;;;;5026508;28;20923;-76
2022/10/04 09:49:01;;;;;;;5.13;2.50;;;14.80;99.90;;;;;;5026819;28;20419;-77
2022/10/04 09:52:07;;;;;;;8.63;2.93;;;14.80;99.90;;;;;;5030382;28;20459;-76
2022/10/04 09:55:06;;;;;;;4.80;2.80;;;15.00;99.90;;;;;;5023181;28;20941;-77
2022/10/04 09:58:28;;;;;;;7.50;3.10;;;15.10;99.90;;;;;;5035844;28;20444;-77
2022/10/04 10:01:23;;;;;;;7.83;2.73;;;15.20;99.90;;;;;;5031560;28;20603;-76
2022/10/04 10:04:34;;;;;;;8.33;2.73;;;15.40;99.90;;;;;;5028636;28;20431;-77
2022/10/04 10:07:39;;;;;;;5.47;2.77;;;15.60;99.90;;;;;;5027282;28;20783;-77
2022/10/04 10:14:12;;;;;;;6.10;2.73;;;15.90;99.90;;;;;;5021487;28;20468;-76
2022/10/04 10:17:13;;;;;;;3.37;2.20;;;16.10;99.90;;;;;;5028402;28;20851;-76
2022/10/04 10:20:22;;;;;;;6.80;2.50;;;16.00;99.90;;;;;;5038513;28;20550;-76
2022/10/04 10:23:30;;;;;;;6.90;2.70;;;16.10;99.90;;;;;;5031330;28;20570;-76
2022/10/04 10:26:42;;;;;;;7.10;2.90;;;16.30;99.90;;;;;;5029754;28;20465;-76
2022/10/04 10:29:59;;;;;;;4.97;2.57;;;16.40;99.90;;;;;;5024510;28;20550;-76
2022/10/04 10:33:26;;;;;;;4.00;2.63;;;16.50;99.90;;;;;;5028034;28;20531;-76
2022/10/04 10:36:27;;;;;;;4.10;2.53;;;16.60;99.90;;;;;;4978358;28;20593;-76
2022/10/04 10:39:44;;;;;;;8.03;3.10;;;16.50;99.90;;;;;;5026579;28;20430;-76
2022/10/04 10:42:53;;;;;;;6.50;3.13;;;16.60;99.90;;;;;;5022825;28;20599;-75
2022/10/04 10:46:05;;;;;;;6.00;3.00;;;16.60;99.90;;;;;;5043846;28;20460;-76
2022/10/04 10:49:26;;;;;;;6.70;3.30;;;16.60;99.90;;;;;;5034967;28;20940;-76
2022/10/04 10:53:08;;;;;;;12.10;3.70;;;16.50;99.90;;;;;;5027602;28;20445;-76
2022/10/04 10:56:30;;;;;;;6.10;3.07;;;16.60;99.90;;;;;;5036658;28;20661;-76
2022/10/04 10:59:48;;;;;;;6.07;3.33;;;16.80;99.90;;;;;;5045496;28;20433;-76
2022/10/04 11:03:11;;;;;;;10.60;3.30;;;16.80;99.90;;;;;;5044460;28;20415;-76
2022/10/04 11:06:12;;;;;;;5.60;3.40;;;16.70;99.90;;;;;;5031952;28;20432;-76
2022/10/04 11:09:37;;;;;;;6.33;3.10;;;16.80;99.90;;;;;;5044939;28;20442;-76
2022/10/04 11:13:04;;;;;;;4.10;2.50;;;16.80;99.90;;;;;;5047943;28;20431;-76
2022/10/04 11:16:33;;;;;;;4.63;3.30;;;16.90;99.90;;;;;;5048688;28;20428;-76
2022/10/04 11:19:51;;;;;;;5.03;3.20;;;16.90;99.90;;;;;;5008987;28;20447;-76
2022/10/04 11:23:13;;;;;;;8.03;3.80;;;16.90;99.90;;;;;;5044307;28;20977;-76
2022/10/04 11:26:41;;;;;;;10.63;3.40;;;16.80;99.90;;;;;;5044869;28;20410;-76
2022/10/04 11:29:42;;;;;;;4.67;2.87;;;17.00;99.90;;;;;;5034169;28;20435;-75
2022/10/04 11:33:17;;;;;;;5.33;2.60;;;17.10;99.90;;;;;;5038735;28;20418;-75
2022/10/04 11:36:28;;;;;;;6.73;2.60;;;17.20;99.90;;;;;;5035537;28;20939;-76
2022/10/04 11:39:36;;;;;;;7.90;2.53;;;17.40;99.90;;;;;;5042863;28;20834;-75
2022/10/04 11:42:35;;;;;;;5.63;2.90;;;17.50;99.90;;;;;;5032216;28;20423;-76
2022/10/04 11:45:37;;;;;;;6.73;3.00;;;17.50;99.90;;;;;;5040208;28;20851;-75
2022/10/04 11:48:35;;;;;;;6.43;2.63;;;17.40;99.90;;;;;;5041834;28;20874;-75
2022/10/04 11:51:55;;;;;;;7.43;2.90;;;17.40;99.90;;;;;;5044303;28;20443;-75
2022/10/04 11:55:25;;;;;;;3.63;2.67;;;17.20;99.90;;;;;;5035565;28;20441;-75
2022/10/04 11:58:20;;;;;;;7.03;2.70;;;17.10;99.90;;;;;;5037675;28;20492;-75
2022/10/04 12:01:49;;;;;;;5.80;2.83;;;17.30;99.90;;;;;;5037458;28;20932;-75
2022/10/04 12:05:00;;;;;;;4.53;3.10;;;17.50;99.90;;;;;;5047362;28;20427;-75
2022/10/04 12:07:54;;;;;;;5.13;2.73;;;17.70;99.90;;;;;;5021192;28;20786;-75
2022/10/04 12:10:41;;;;;;;7.37;2.83;;;17.90;99.90;;;;;;5034741;28;20968;-75
2022/10/04 12:13:46;;;;;;;8.60;2.53;;;18.10;96.20;;;;;;5035653;28;20411;-75
2022/10/04 12:16:48;;;;;;;4.90;2.80;;;18.30;94.80;;;;;;5043506;28;20421;-75
2022/10/04 12:20:02;;;;;;;7.83;2.63;;;18.50;93.50;;;;;;5038410;28;20452;-75
2022/10/04 12:23:12;;;;;;;6.13;2.50;;;18.70;90.60;;;;;;5033024;28;20831;-75
2022/10/04 12:26:17;;;;;;;4.57;2.60;;;18.90;92.10;;;;;;5020098;28;21054;-75
2022/10/04 12:29:39;;;;;;;8.30;2.90;;;19.10;89.60;;;;;;5022982;28;21093;-75
2022/10/04 12:32:30;;;;;;;7.80;2.70;;;19.20;78.00;;;;;;5036557;28;20395;-75
2022/10/04 12:35:28;;;;;;;18.90;3.93;;;19.30;68.10;;;;;;5039705;28;20912;-75
2022/10/04 12:38:40;;;;;;;4.80;2.50;;;19.50;70.20;;;;;;5037008;28;20454;-74
2022/10/04 12:41:39;;;;;;;6.57;2.37;;;19.60;74.30;;;;;;5034000;28;20466;-75
2022/10/04 12:44:40;;;;;;;5.27;2.43;;;19.60;74.90;;;;;;5040883;28;20398;-75
2022/10/04 12:48:02;;;;;;;3.03;2.17;;;19.80;73.00;;;;;;5028802;28;20576;-75
2022/10/04 12:50:58;;;;;;;5.93;2.67;;;20.00;74.00;;;;;;5037445;28;20701;-75
2022/10/04 12:53:49;;;;;;;3.50;2.50;;;20.10;68.30;;;;;;5036605;28;20416;-75
2022/10/04 12:56:44;;;;;;;4.07;2.10;;;20.30;67.30;;;;;;5034842;28;20416;-75
2022/10/04 12:59:46;;;;;;;4.30;2.90;;;20.60;69.40;;;;;;5034168;28;20439;-75
2022/10/04 13:03:05;;;;;;;6.13;2.30;;;20.50;63.80;;;;;;5033694;28;20776;-75
2022/10/04 13:06:01;;;;;;;4.90;2.40;;;20.70;71.10;;;;;;5034655;28;20518;-75
2022/10/04 13:09:02;;;;;;;3.93;2.30;;;20.70;65.50;;;;;;5031683;28;20403;-75
2022/10/04 13:12:07;;;;;;;12.00;2.70;;;20.80;66.90;;;;;;5037539;28;20439;-75
2022/10/04 13:15:09;;;;;;;9.53;2.80;;;21.00;65.70;;;;;;5035398;28;20514;-74
2022/10/04 13:18:03;;;;;;;6.30;3.13;;;21.10;65.80;;;;;;5019010;28;20456;-75
2022/10/04 13:20:54;;;;;;;5.17;2.73;;;20.80;60.00;;;;;;5037473;28;21029;-75
2022/10/04 13:23:56;;;;;;;7.60;3.23;;;20.80;62.10;;;;;;5023286;28;20558;-75
2022/10/04 13:26:47;;;;;;;5.07;2.40;;;20.90;63.20;;;;;;5022225;28;20459;-75
2022/10/04 13:29:42;;;;;;;9.50;2.67;;;20.90;57.40;;;;;;5023017;28;20427;-75
2022/10/04 13:32:36;;;;;;;11.13;3.40;;;20.90;58.00;;;;;;5029846;28;20785;-75
2022/10/04 13:35:26;;;;;;;6.20;2.90;;;21.00;57.70;;;;;;5038164;28;20969;-75
2022/10/04 13:38:38;;;;;;;5.60;2.50;;;21.20;58.50;;;;;;5029401;28;20543;-75
2022/10/04 13:41:37;;;;;;;11.50;2.80;;;21.50;59.70;;;;;;5032865;28;20475;-75
2022/10/04 13:44:56;;;;;;;7.67;3.60;;;21.60;51.60;;;;;;5034070;28;20456;-75
2022/10/04 13:48:03;;;;;;;6.93;2.80;;;21.80;61.30;;;;;;5001848;28;20503;-75
2022/10/04 13:51:04;;;;;;;7.37;3.47;;;22.00;58.30;;;;;;5029740;28;20562;-75
2022/10/04 13:57:17;;;;;;;5.53;2.80;;;22.20;58.50;;;;;;5024155;28;20824;-76
2022/10/04 14:00:06;;;;;;;7.27;2.87;;;22.00;57.80;;;;;;5034370;28;20479;-75
2022/10/04 14:03:22;;;;;;;8.60;3.70;;;22.00;61.10;;;;;;5028605;28;20563;-76
2022/10/04 14:06:38;;;;;;;4.10;2.63;;;22.00;66.50;;;;;;5022416;28;20455;-75
2022/10/04 14:10:06;;;;;;;10.43;3.10;;;22.20;61.50;;;;;;5030642;28;20446;-75
2022/10/04 14:13:12;;;;;;;6.90;2.80;;;22.30;54.40;;;;;;5041584;28;20454;-75
2022/10/04 14:16:32;;;;;;;12.30;3.90;;;22.20;63.10;;;;;;5024872;28;20473;-76
2022/10/04 14:19:58;;;;;;;5.63;2.97;;;22.00;68.90;;;;;;5035292;28;20449;-76
2022/10/04 14:23:23;;;;;;;5.00;3.00;;;22.00;67.10;;;;;;5038447;28;20406;-75
2022/10/04 14:26:37;;;;;;;6.40;2.60;;;22.20;70.90;;;;;;5029018;28;20510;-75
2022/10/04 14:29:50;;;;;;;4.10;2.17;;;22.40;71.50;;;;;;5036115;28;20442;-76
2022/10/04 14:33:24;;;;;;;3.63;2.47;;;22.60;67.70;;;;;;5046056;28;20463;-75
2022/10/04 14:36:44;;;;;;;4.27;2.80;;;22.50;67.00;;;;;;5031575;28;20527;-75
2022/10/04 14:40:13;;;;;;;8.33;3.00;;;22.80;72.10;;;;;;5031016;28;20442;-75
2022/10/04 14:43:34;;;;;;;7.37;2.90;;;22.70;69.50;;;;;;5040867;28;20887;-75
2022/10/04 14:46:26;;;;;;;8.07;3.07;;;22.60;73.90;;;;;;5006647;28;21055;-75
2022/10/04 14:49:20;;;;;;;7.20;3.63;;;22.70;74.10;;;;;;5026864;28;20457;-75
2022/10/04 14:52:32;;;;;;;8.27;2.47;;;23.00;70.60;;;;;;5024648;28;20439;-75
2022/10/04 14:55:51;;;;;;;5.33;2.77;;;22.50;72.10;;;;;;5021617;28;20448;-75
2022/10/04 14:58:47;;;;;;;4.70;2.67;;;22.60;75.20;;;;;;5019522;28;20430;-76
2022/10/04 15:01:37;;;;;;;6.60;2.87;;;22.70;72.90;;;;;;5027424;28;20480;-76
2022/10/04 15:04:32;;;;;;;13.07;3.73;;;22.80;73.50;;;;;;5030022;28;20427;-76
2022/10/04 15:07:28;;;;;;;9.73;2.87;;;22.60;73.80;;;;;;5010205;28;20492;-76
2022/10/04 15:10:19;;;;;;;6.50;2.70;;;22.80;71.90;;;;;;5018144;28;20617;-76
2022/10/04 15:13:09;;;;;;;12.93;3.00;;;22.70;69.90;;;;;;5035426;28;20510;-74
2022/10/04 15:16:10;;;;;;;5.03;2.50;;;22.30;72.40;;;;;;5030732;28;20431;-74
2022/10/04 15:19:01;;;;;;;7.00;2.60;;;21.70;78.10;;;;;;5026932;28;20441;-74
2022/10/04 15:21:59;;;;;;;5.23;2.30;;;21.20;84.40;;;;;;5026726;28;20455;-74
2022/10/04 15:24:48;;;;;;;4.43;2.63;;;20.50;91.40;;;;;;5024460;28;20531;-74
2022/10/04 15:27:50;;;;;;;3.90;2.37;;;20.00;96.20;;;;;;5032130;28;20809;-73
2022/10/04 15:30:51;;;;;;;22.63;4.53;;;19.60;99.90;;;;;;5025313;28;20533;-74
2022/10/04 15:33:43;;;;;;;19.53;2.80;;;19.10;99.90;;;;;;5024353;28;20427;-73
2022/10/04 15:36:48;;;;;;;7.57;3.00;;;19.00;99.90;;;;;;5035123;28;20422;-74
2022/10/04 15:40:02;;;;;;;7.67;2.90;;;18.70;99.90;;;;;;5025110;28;20498;-75
2022/10/04 15:43:18;;;;;;;6.47;2.77;;;18.30;99.90;;;;;;5032270;28;20802;-76
2022/10/04 15:46:34;;;;;;;4.30;2.83;;;17.80;99.90;;;;;;5026471;28;20603;-76
2022/10/04 15:49:35;;;;;;;10.00;3.00;;;17.50;99.90;;;;;;5023828;28;20779;-76
2022/10/04 15:52:57;;;;;;;4.93;3.27;;;17.10;99.90;;;;;;5029024;28;20530;-75